Time;durP1;ratioP1;P1;durP2;ratioP2;P2;SDS_P1;SDS_P2;PMS_P1;PMS_P2;Temp;Humidity;BMP_temperature;BMP_pressure;BME280_temperature;BME280_humidity;BME280_pressure;Samples;Min_cycle;Max_cycle;Signal;HPM_P1;HPM_P2
2022/06/19 00:00:08;;;;;;;1.47;0.90;;;25.30;85.90;;;;;;5037483;28;20470;-79
2022/06/19 00:02:37;;;;;;;1.50;0.80;;;25.30;86.40;;;;;;5037544;28;20891;-79
2022/06/19 00:05:06;;;;;;;1.47;0.90;;;25.20;86.90;;;;;;5043756;28;20482;-76
2022/06/19 00:07:33;;;;;;;1.50;0.80;;;25.20;87.00;;;;;;5027299;28;21022;-78
2022/06/19 00:10:00;;;;;;;1.47;0.90;;;25.10;87.40;;;;;;5031206;28;20459;-76
2022/06/19 00:12:27;;;;;;;1.43;0.90;;;25.10;86.50;;;;;;5020101;28;20773;-78
2022/06/19 00:14:54;;;;;;;2.93;1.63;;;25.00;87.70;;;;;;5043624;28;20478;-78
2022/06/19 00:17:21;;;;;;;1.47;0.90;;;25.00;87.80;;;;;;5041706;28;20450;-77
2022/06/19 00:19:48;;;;;;;1.47;0.90;;;24.90;87.20;;;;;;5038652;28;20929;-77
2022/06/19 00:22:19;;;;;;;1.47;0.90;;;24.90;87.40;;;;;;5031635;28;20459;-77
2022/06/19 00:24:46;;;;;;;1.47;0.90;;;24.90;87.80;;;;;;5035563;28;20494;-78
2022/06/19 00:27:12;;;;;;;1.50;0.90;;;24.80;89.40;;;;;;5032294;28;21001;-76
2022/06/19 00:29:39;;;;;;;1.50;0.90;;;24.80;88.50;;;;;;5031461;28;20478;-77
2022/06/19 00:32:07;;;;;;;1.43;0.90;;;24.80;88.80;;;;;;5036234;28;20542;-77
2022/06/19 00:34:35;;;;;;;1.47;0.80;;;24.70;88.70;;;;;;5032063;28;20580;-78
2022/06/19 00:37:03;;;;;;;2.20;1.10;;;24.70;88.00;;;;;;5025589;28;20486;-78
2022/06/19 00:39:37;;;;;;;1.47;0.90;;;24.60;88.40;;;;;;5032741;28;20490;-78
2022/06/19 00:42:05;;;;;;;1.60;1.20;;;24.60;89.70;;;;;;5030336;28;20584;-77
2022/06/19 00:44:31;;;;;;;1.43;0.90;;;24.50;89.90;;;;;;5036407;28;21046;-78
2022/06/19 00:47:08;;;;;;;1.47;0.90;;;24.50;89.20;;;;;;5041445;28;20483;-77
2022/06/19 00:49:42;;;;;;;1.50;0.90;;;24.50;89.60;;;;;;5031908;28;20771;-77
2022/06/19 00:52:16;;;;;;;1.50;0.90;;;24.40;89.20;;;;;;5020018;28;20526;-77
2022/06/19 00:54:48;;;;;;;1.40;0.83;;;24.40;89.30;;;;;;5034083;28;20477;-77
2022/06/19 00:57:16;;;;;;;1.43;0.90;;;24.40;89.70;;;;;;5039229;28;21110;-76
2022/06/19 00:59:48;;;;;;;1.47;0.90;;;24.30;88.90;;;;;;5031413;28;20835;-77
2022/06/19 01:02:16;;;;;;;1.47;0.90;;;24.30;89.60;;;;;;5036473;28;20467;-76
2022/06/19 01:04:47;;;;;;;1.50;0.90;;;24.30;90.20;;;;;;5032107;28;20493;-77
2022/06/19 01:07:14;;;;;;;1.43;0.90;;;24.20;89.80;;;;;;5031611;28;20487;-77
2022/06/19 01:09:41;;;;;;;1.50;0.90;;;24.20;90.20;;;;;;5031484;28;20467;-77
2022/06/19 01:12:10;;;;;;;1.50;0.90;;;24.20;90.70;;;;;;5030912;28;20486;-76
2022/06/19 01:14:39;;;;;;;1.47;0.90;;;24.10;91.30;;;;;;5050016;28;20507;-77
2022/06/19 01:17:06;;;;;;;1.50;0.90;;;24.00;91.90;;;;;;5041271;28;20508;-76
2022/06/19 01:19:38;;;;;;;1.47;0.90;;;24.00;91.40;;;;;;5028638;28;20459;-77
2022/06/19 01:22:10;;;;;;;1.47;0.90;;;24.00;91.10;;;;;;5021569;28;21079;-77
2022/06/19 01:24:53;;;;;;;1.50;0.90;;;23.90;91.20;;;;;;5029450;28;21067;-76
2022/06/19 01:30:03;;;;;;;1.50;0.90;;;23.90;91.70;;;;;;5048269;28;20540;-77
2022/06/19 01:32:32;;;;;;;1.47;0.90;;;23.90;91.50;;;;;;5036210;28;20455;-78
2022/06/19 01:35:00;;;;;;;1.50;0.90;;;23.90;91.70;;;;;;5029405;28;20482;-77
2022/06/19 01:37:30;;;;;;;1.60;1.20;;;23.80;91.40;;;;;;5035134;28;20452;-77
2022/06/19 01:40:02;;;;;;;1.47;0.90;;;23.80;92.00;;;;;;5030547;28;20459;-77
2022/06/19 01:42:31;;;;;;;1.50;0.80;;;23.80;92.20;;;;;;5037311;28;20482;-77
2022/06/19 01:44:58;;;;;;;1.60;1.10;;;23.80;91.40;;;;;;5035598;28;20474;-78
2022/06/19 01:47:27;;;;;;;1.50;0.90;;;23.70;92.60;;;;;;5038673;28;20486;-78
2022/06/19 01:49:56;;;;;;;1.50;0.90;;;23.60;93.50;;;;;;5043651;28;20474;-77
2022/06/19 01:52:25;;;;;;;1.50;0.90;;;23.50;93.20;;;;;;5036073;28;20849;-77
2022/06/19 01:54:55;;;;;;;1.47;0.90;;;23.50;93.60;;;;;;5031129;28;20491;-77
2022/06/19 01:57:24;;;;;;;1.50;0.90;;;23.40;94.10;;;;;;5025596;28;20885;-78
2022/06/19 01:59:52;;;;;;;1.50;0.90;;;23.40;94.20;;;;;;5026824;28;20459;-76
2022/06/19 02:02:20;;;;;;;1.43;0.90;;;23.30;94.00;;;;;;5027604;28;20470;-77
2022/06/19 02:04:47;;;;;;;1.50;0.90;;;23.40;92.80;;;;;;5030622;28;20475;-78
2022/06/19 02:07:19;;;;;;;1.50;0.90;;;23.40;92.80;;;;;;5037789;28;20973;-78
2022/06/19 02:09:47;;;;;;;1.40;0.90;;;23.40;93.00;;;;;;5047341;28;20549;-76
2022/06/19 02:12:14;;;;;;;1.47;0.90;;;23.40;93.10;;;;;;5037345;28;20464;-78
2022/06/19 02:14:42;;;;;;;1.47;0.90;;;23.40;92.60;;;;;;5028270;28;20493;-78
2022/06/19 02:17:15;;;;;;;1.50;0.83;;;23.40;92.50;;;;;;5032551;28;20826;-77
2022/06/19 02:19:42;;;;;;;1.47;0.90;;;23.40;93.70;;;;;;5047650;28;20470;-78
2022/06/19 02:22:12;;;;;;;1.50;0.90;;;23.40;93.50;;;;;;5024608;28;21072;-76
2022/06/19 02:24:40;;;;;;;1.47;0.90;;;23.30;94.20;;;;;;5030056;28;21018;-77
2022/06/19 02:27:07;;;;;;;1.47;0.90;;;23.30;94.00;;;;;;5032117;28;20474;-77
2022/06/19 02:29:36;;;;;;;1.50;0.90;;;23.30;93.20;;;;;;5039776;28;20860;-76
2022/06/19 02:32:05;;;;;;;1.50;0.90;;;23.30;92.80;;;;;;5019305;28;20495;-76
2022/06/19 02:34:36;;;;;;;1.47;0.90;;;23.20;94.00;;;;;;5028071;28;20846;-78
2022/06/19 02:37:05;;;;;;;1.50;0.90;;;23.20;95.40;;;;;;5028202;28;20463;-78
2022/06/19 02:39:41;;;;;;;1.50;1.00;;;23.10;95.20;;;;;;5030719;28;20458;-74
2022/06/19 02:42:36;;;;;;;1.47;0.90;;;23.10;94.30;;;;;;5030073;28;20872;-78
2022/06/19 02:45:07;;;;;;;1.50;0.90;;;23.00;95.80;;;;;;5044809;28;20478;-76
2022/06/19 02:47:37;;;;;;;1.50;0.90;;;23.00;95.70;;;;;;5030641;28;21054;-77
2022/06/19 02:50:06;;;;;;;1.50;1.00;;;22.90;96.50;;;;;;5027699;28;20471;-75
2022/06/19 02:52:33;;;;;;;1.47;0.90;;;22.90;96.80;;;;;;5030819;28;20473;-76
2022/06/19 02:55:01;;;;;;;1.47;0.90;;;22.80;98.00;;;;;;5029792;28;20486;-76
2022/06/19 02:57:28;;;;;;;3.30;3.10;;;22.70;98.20;;;;;;5031871;28;20918;-76
2022/06/19 02:59:55;;;;;;;1.47;0.90;;;22.70;98.20;;;;;;5026372;28;20475;-76
2022/06/19 03:02:23;;;;;;;1.43;0.90;;;22.60;98.20;;;;;;5027067;28;20489;-76
2022/06/19 03:04:56;;;;;;;1.47;0.90;;;22.60;98.20;;;;;;5029330;28;20498;-77
2022/06/19 03:07:23;;;;;;;6.13;3.33;;;22.50;98.20;;;;;;5032774;28;20597;-77
2022/06/19 03:09:50;;;;;;;1.50;1.00;;;22.50;98.20;;;;;;5045608;28;20954;-76
2022/06/19 03:12:17;;;;;;;1.47;0.90;;;22.40;98.20;;;;;;5034467;28;20525;-75
2022/06/19 03:14:45;;;;;;;1.50;0.90;;;22.40;98.20;;;;;;5029771;28;20485;-76
2022/06/19 03:17:14;;;;;;;1.50;1.10;;;22.40;98.20;;;;;;5038062;28;20768;-76
2022/06/19 03:19:41;;;;;;;1.50;0.90;;;22.30;98.20;;;;;;5036665;28;20462;-77
2022/06/19 03:22:09;;;;;;;1.50;0.90;;;22.20;98.20;;;;;;5032085;28;20548;-75
2022/06/19 03:24:36;;;;;;;1.50;1.00;;;22.10;98.20;;;;;;5029221;28;20506;-76
2022/06/19 03:27:03;;;;;;;1.50;0.90;;;22.00;98.20;;;;;;5027639;28;20491;-77
2022/06/19 03:29:30;;;;;;;1.87;1.43;;;21.80;98.20;;;;;;5037222;28;20490;-77
2022/06/19 03:31:57;;;;;;;1.50;1.00;;;21.70;98.20;;;;;;5027441;28;20509;-77
2022/06/19 03:34:24;;;;;;;1.43;0.90;;;21.60;98.20;;;;;;5036489;28;20971;-75
2022/06/19 03:36:51;;;;;;;1.50;1.03;;;21.40;98.00;;;;;;5039576;28;20463;-75
2022/06/19 03:39:19;;;;;;;1.47;0.90;;;21.30;98.00;;;;;;5037307;28;20558;-76
2022/06/19 03:41:46;;;;;;;1.47;0.90;;;21.20;97.60;;;;;;5030652;28;20515;-76
2022/06/19 03:44:13;;;;;;;1.50;0.90;;;21.00;97.80;;;;;;5030201;28;20467;-77
2022/06/19 03:46:40;;;;;;;1.50;1.00;;;20.90;97.80;;;;;;5032588;28;20463;-77
2022/06/19 03:49:07;;;;;;;1.50;0.90;;;20.80;97.60;;;;;;5030563;28;20990;-79
2022/06/19 03:51:33;;;;;;;1.50;1.10;;;20.70;97.60;;;;;;5028940;28;21269;-77
2022/06/19 03:54:00;;;;;;;1.50;1.00;;;20.70;97.50;;;;;;5030728;28;20467;-76
2022/06/19 03:56:31;;;;;;;1.50;1.00;;;20.70;96.80;;;;;;5031686;28;20490;-77
2022/06/19 03:58:59;;;;;;;1.50;0.90;;;20.60;97.10;;;;;;5029499;28;20982;-77
2022/06/19 04:01:28;;;;;;;1.47;0.90;;;20.40;97.30;;;;;;5032847;28;20910;-76
2022/06/19 04:03:56;;;;;;;1.50;0.90;;;20.30;97.40;;;;;;5031030;28;20466;-75
2022/06/19 04:06:26;;;;;;;1.50;0.90;;;20.10;97.60;;;;;;5029777;28;20489;-77
2022/06/19 04:08:54;;;;;;;1.50;0.90;;;20.00;97.10;;;;;;5049905;28;20490;-76
2022/06/19 04:11:23;;;;;;;1.50;0.90;;;20.00;97.00;;;;;;5047193;28;20481;-77
2022/06/19 04:13:52;;;;;;;1.47;0.90;;;19.90;96.50;;;;;;5032531;28;20463;-77
2022/06/19 04:16:22;;;;;;;1.50;0.90;;;19.80;96.30;;;;;;5026552;28;20570;-74
2022/06/19 04:18:50;;;;;;;1.43;0.90;;;19.70;96.30;;;;;;5047317;28;20462;-77
2022/06/19 04:21:19;;;;;;;1.50;0.90;;;19.60;96.00;;;;;;5033847;28;21250;-78
2022/06/19 04:23:47;;;;;;;1.50;0.90;;;19.50;95.50;;;;;;5032123;28;20498;-77
2022/06/19 04:26:16;;;;;;;1.50;0.90;;;19.50;95.50;;;;;;5026083;28;20990;-76
2022/06/19 04:28:43;;;;;;;1.50;0.90;;;19.40;95.20;;;;;;5037269;28;20483;-78
2022/06/19 04:31:11;;;;;;;1.60;1.20;;;19.30;94.80;;;;;;5033861;28;21351;-77
2022/06/19 04:33:39;;;;;;;1.50;1.20;;;19.20;94.50;;;;;;5043449;28;20485;-76
2022/06/19 04:36:06;;;;;;;1.47;0.90;;;19.10;94.40;;;;;;5035295;28;20492;-77
2022/06/19 04:38:33;;;;;;;1.43;0.90;;;19.00;94.40;;;;;;5032859;28;20505;-74
2022/06/19 04:41:00;;;;;;;1.50;0.90;;;19.10;93.50;;;;;;5029865;28;20463;-74
2022/06/19 04:43:27;;;;;;;1.50;0.90;;;19.10;93.60;;;;;;5048117;28;20518;-73
2022/06/19 04:46:02;;;;;;;1.50;0.90;;;19.10;93.20;;;;;;5043137;28;20483;-73
2022/06/19 04:48:31;;;;;;;1.50;0.90;;;19.20;92.60;;;;;;5030171;28;20508;-74
2022/06/19 04:50:58;;;;;;;1.50;0.90;;;19.30;92.60;;;;;;5019458;28;20470;-74
2022/06/19 04:53:25;;;;;;;1.50;0.90;;;19.40;92.10;;;;;;5028904;28;20470;-74
2022/06/19 04:55:52;;;;;;;1.47;0.90;;;19.50;91.30;;;;;;5029622;28;20986;-76
2022/06/19 04:58:22;;;;;;;1.47;0.90;;;19.60;91.00;;;;;;5029396;28;20490;-74
2022/06/19 05:00:49;;;;;;;1.50;0.90;;;19.60;90.70;;;;;;5045009;28;20902;-73
2022/06/19 05:03:16;;;;;;;1.50;0.90;;;19.70;90.10;;;;;;5028848;28;20455;-73
2022/06/19 05:05:44;;;;;;;1.47;0.90;;;19.80;89.80;;;;;;5029393;28;20902;-75
2022/06/19 05:08:11;;;;;;;4.13;3.13;;;20.00;89.50;;;;;;5034803;28;20460;-74
2022/06/19 05:10:39;;;;;;;1.47;0.90;;;20.20;89.10;;;;;;5028371;28;20459;-75
2022/06/19 05:13:07;;;;;;;1.40;0.90;;;20.40;88.40;;;;;;5017201;28;20487;-76
2022/06/19 05:15:34;;;;;;;1.50;0.90;;;20.40;88.40;;;;;;5030103;28;20510;-76
2022/06/19 05:18:01;;;;;;;1.50;0.90;;;20.50;88.30;;;;;;5031452;28;21019;-76
2022/06/19 05:20:28;;;;;;;1.60;1.37;;;20.70;87.20;;;;;;5035623;28;20467;-77
2022/06/19 05:22:57;;;;;;;1.47;0.90;;;20.60;87.10;;;;;;5026876;28;20468;-75
2022/06/19 05:25:23;;;;;;;1.47;0.90;;;20.60;87.60;;;;;;5059417;23;20487;-77
2022/06/19 05:27:50;;;;;;;1.43;0.90;;;20.70;87.30;;;;;;5035780;28;20486;-76
2022/06/19 05:30:17;;;;;;;1.50;0.90;;;20.70;86.20;;;;;;5041602;28;20777;-76
2022/06/19 05:32:44;;;;;;;1.50;0.90;;;20.70;86.10;;;;;;5047471;28;20996;-76
2022/06/19 05:35:11;;;;;;;1.47;0.90;;;20.80;85.60;;;;;;5036833;28;20463;-77
2022/06/19 05:37:38;;;;;;;1.50;0.90;;;20.80;85.00;;;;;;5036701;28;20502;-77
2022/06/19 05:40:09;;;;;;;1.40;0.90;;;20.90;84.80;;;;;;5033960;28;20497;-77
2022/06/19 05:42:37;;;;;;;1.47;0.90;;;20.90;84.10;;;;;;5040730;28;20454;-77
2022/06/19 05:45:04;;;;;;;1.50;0.90;;;20.70;84.20;;;;;;5049909;28;20458;-77
2022/06/19 05:47:31;;;;;;;1.50;0.90;;;20.80;84.50;;;;;;5034872;28;20486;-77
2022/06/19 05:49:58;;;;;;;1.47;0.90;;;20.90;84.70;;;;;;5036033;28;20465;-77
2022/06/19 05:52:26;;;;;;;1.47;0.90;;;20.90;84.00;;;;;;5034933;28;20478;-78
2022/06/19 05:54:54;;;;;;;1.47;0.90;;;20.90;83.80;;;;;;5034462;28;20463;-76
2022/06/19 05:57:22;;;;;;;1.83;1.50;;;20.80;83.60;;;;;;5041073;28;20490;-76
2022/06/19 05:59:51;;;;;;;1.47;0.90;;;20.80;83.80;;;;;;5028967;28;20501;-77
2022/06/19 06:02:21;;;;;;;1.43;0.90;;;20.70;84.20;;;;;;5030963;28;20492;-77
2022/06/19 06:04:48;;;;;;;1.43;0.90;;;20.60;84.40;;;;;;5030269;28;20975;-76
2022/06/19 06:07:15;;;;;;;1.43;0.90;;;20.60;84.50;;;;;;5032627;28;20991;-75
2022/06/19 06:09:43;;;;;;;1.50;0.90;;;20.70;84.30;;;;;;5039572;28;20459;-76
2022/06/19 06:12:10;;;;;;;1.43;0.90;;;20.70;84.40;;;;;;5028510;28;20470;-75
2022/06/19 06:14:38;;;;;;;1.43;0.90;;;20.80;84.50;;;;;;5035788;28;20466;-77
2022/06/19 06:17:05;;;;;;;1.47;0.90;;;20.90;84.00;;;;;;5031280;28;20493;-76
2022/06/19 06:19:33;;;;;;;1.50;0.90;;;21.00;83.90;;;;;;5036150;28;20862;-76
2022/06/19 06:22:03;;;;;;;1.47;0.90;;;20.90;84.40;;;;;;5020202;28;20483;-76
2022/06/19 06:24:30;;;;;;;1.40;0.90;;;20.80;84.50;;;;;;5038218;28;20467;-77
2022/06/19 06:26:57;;;;;;;1.43;0.90;;;20.70;85.30;;;;;;5034807;28;20495;-76
2022/06/19 06:29:25;;;;;;;1.43;0.90;;;20.80;85.30;;;;;;5040713;28;20455;-76
2022/06/19 06:31:53;;;;;;;1.50;0.90;;;21.10;85.00;;;;;;5036024;28;20578;-76
2022/06/19 06:34:20;;;;;;;1.43;0.90;;;21.30;84.10;;;;;;5049443;28;20486;-76
2022/06/19 06:36:47;;;;;;;1.47;0.90;;;21.40;84.00;;;;;;5037482;28;20501;-76
2022/06/19 06:39:14;;;;;;;1.50;0.90;;;21.30;84.40;;;;;;5031065;28;20535;-76
2022/06/19 06:41:41;;;;;;;1.50;0.90;;;21.50;84.00;;;;;;5029273;28;20498;-75
2022/06/19 06:44:13;;;;;;;1.50;0.90;;;21.60;83.80;;;;;;5037988;28;20467;-76
2022/06/19 06:46:39;;;;;;;1.50;0.90;;;21.70;83.60;;;;;;5037141;28;20489;-76
2022/06/19 06:49:08;;;;;;;1.40;0.90;;;21.80;83.30;;;;;;5036444;28;20455;-76
2022/06/19 06:51:35;;;;;;;1.47;0.87;;;21.80;83.60;;;;;;5028299;28;20495;-77
2022/06/19 06:54:02;;;;;;;1.50;0.90;;;22.00;83.40;;;;;;5035219;28;20951;-76
2022/06/19 06:56:32;;;;;;;1.50;0.90;;;22.50;83.20;;;;;;5041012;28;20471;-76
2022/06/19 06:58:58;;;;;;;1.47;0.90;;;23.00;81.70;;;;;;5042394;28;20490;-76
2022/06/19 07:01:25;;;;;;;1.47;0.90;;;23.40;81.00;;;;;;5038275;28;20458;-76
2022/06/19 07:03:55;;;;;;;1.47;0.90;;;23.70;80.10;;;;;;5038116;28;20830;-76
2022/06/19 07:06:23;;;;;;;1.47;0.90;;;23.90;79.20;;;;;;5025369;28;20482;-76
2022/06/19 07:08:50;;;;;;;1.47;0.87;;;24.20;79.30;;;;;;5057541;28;20466;-76
2022/06/19 07:11:21;;;;;;;1.50;0.90;;;24.40;78.70;;;;;;5023573;28;20857;-76
2022/06/19 07:13:49;;;;;;;1.50;0.90;;;24.60;77.90;;;;;;5041218;28;20491;-77
2022/06/19 07:16:15;;;;;;;1.50;0.90;;;24.80;77.30;;;;;;5028173;28;20890;-77
2022/06/19 07:18:42;;;;;;;1.47;0.87;;;24.90;76.80;;;;;;5039869;28;20487;-76
2022/06/19 07:21:11;;;;;;;1.47;0.90;;;25.10;76.40;;;;;;5036181;28;21854;-76
2022/06/19 07:23:39;;;;;;;1.50;0.90;;;25.10;75.90;;;;;;5043848;28;20450;-75
2022/06/19 07:26:10;;;;;;;1.43;0.90;;;25.10;75.70;;;;;;5025961;28;20488;-77
2022/06/19 07:28:38;;;;;;;1.47;0.90;;;25.10;75.20;;;;;;5041570;28;20471;-76
2022/06/19 07:31:06;;;;;;;1.47;0.83;;;25.00;75.50;;;;;;5025982;28;23054;-76
2022/06/19 07:33:33;;;;;;;2.40;2.20;;;24.80;74.90;;;;;;5045784;28;20466;-77
2022/06/19 07:36:00;;;;;;;1.50;0.80;;;24.60;75.30;;;;;;5021943;28;20489;-76
2022/06/19 07:38:27;;;;;;;1.47;0.80;;;24.40;75.70;;;;;;5056639;28;20466;-76
2022/06/19 07:40:55;;;;;;;1.50;0.90;;;24.20;75.80;;;;;;5019176;28;20463;-76
2022/06/19 07:43:22;;;;;;;1.47;0.90;;;23.80;75.30;;;;;;5057256;28;20571;-76
2022/06/19 07:45:50;;;;;;;1.47;0.90;;;23.50;76.30;;;;;;5043055;28;20897;-76
2022/06/19 07:51:01;;;;;;;1.47;0.90;;;23.50;76.80;;;;;;5041601;28;20553;-76
2022/06/19 07:53:29;;;;;;;1.43;0.80;;;23.60;75.60;;;;;;5035697;28;20467;-76
2022/06/19 07:55:57;;;;;;;1.47;0.80;;;23.80;75.40;;;;;;5030580;28;20574;-76
2022/06/19 07:58:24;;;;;;;1.50;0.87;;;23.90;74.70;;;;;;5040369;28;20585;-76
2022/06/19 08:00:52;;;;;;;1.50;0.90;;;24.20;73.90;;;;;;5034034;28;20486;-77
2022/06/19 08:03:19;;;;;;;1.50;0.90;;;24.30;72.70;;;;;;5047339;28;20500;-76
2022/06/19 08:05:46;;;;;;;1.47;0.90;;;24.50;72.80;;;;;;5037061;28;20548;-77
2022/06/19 08:08:17;;;;;;;1.50;0.87;;;24.40;72.80;;;;;;5035826;28;20474;-76
2022/06/19 08:10:46;;;;;;;1.50;0.90;;;24.30;72.70;;;;;;5034035;28;20454;-76
2022/06/19 08:13:14;;;;;;;1.43;0.87;;;24.20;72.70;;;;;;5028311;28;20536;-76
2022/06/19 08:15:42;;;;;;;1.50;0.80;;;24.20;72.50;;;;;;5039525;28;20870;-76
2022/06/19 08:18:10;;;;;;;1.43;0.90;;;24.30;72.70;;;;;;5038661;28;20862;-76
2022/06/19 08:20:37;;;;;;;1.47;0.90;;;24.10;72.90;;;;;;5037450;28;20997;-76
2022/06/19 08:23:05;;;;;;;1.50;0.90;;;24.20;73.70;;;;;;5039609;28;20528;-76
2022/06/19 08:25:32;;;;;;;1.40;0.90;;;24.30;72.90;;;;;;5041815;28;20552;-76
2022/06/19 08:28:00;;;;;;;1.50;0.90;;;24.50;73.10;;;;;;5044437;28;20599;-76
2022/06/19 08:30:32;;;;;;;1.47;0.90;;;24.70;72.60;;;;;;5037561;28;20980;-76
2022/06/19 08:32:59;;;;;;;1.43;0.80;;;24.90;71.70;;;;;;5033819;28;20558;-76
2022/06/19 08:35:28;;;;;;;1.50;0.90;;;25.10;71.60;;;;;;5037123;28;20497;-76
2022/06/19 08:37:59;;;;;;;1.47;0.87;;;24.80;71.30;;;;;;5039463;28;20469;-77
2022/06/19 08:40:45;;;;;;;1.43;0.80;;;24.80;71.90;;;;;;5038837;28;20924;-77
2022/06/19 08:43:28;;;;;;;1.47;0.90;;;24.90;71.40;;;;;;5026421;28;20869;-77
2022/06/19 08:46:08;;;;;;;1.50;0.80;;;25.10;71.40;;;;;;5040459;28;20486;-77
2022/06/19 08:48:50;;;;;;;1.40;0.87;;;25.40;71.60;;;;;;5033910;28;20542;-77
2022/06/19 08:51:25;;;;;;;1.47;0.90;;;25.80;69.60;;;;;;5033360;28;20486;-76
2022/06/19 08:54:08;;;;;;;1.50;0.90;;;25.90;69.60;;;;;;5052431;28;20466;-77
2022/06/19 08:56:42;;;;;;;1.50;0.80;;;26.00;70.50;;;;;;5040281;28;20486;-76
2022/06/19 08:59:17;;;;;;;1.47;0.90;;;26.10;69.50;;;;;;5043993;28;20462;-77
2022/06/19 09:01:55;;;;;;;1.40;0.90;;;26.10;69.40;;;;;;5034451;28;20454;-76
2022/06/19 09:07:38;;;;;;;1.43;0.80;;;26.00;69.80;;;;;;5046755;28;20479;-76
2022/06/19 09:10:23;;;;;;;1.60;1.10;;;25.80;69.90;;;;;;5040547;28;20490;-76
2022/06/19 09:13:19;;;;;;;1.50;0.90;;;25.60;70.30;;;;;;5034194;28;20478;-76
2022/06/19 09:15:51;;;;;;;1.50;0.90;;;25.30;70.50;;;;;;5027862;28;20495;-76
2022/06/19 09:18:30;;;;;;;1.43;0.80;;;24.90;71.00;;;;;;5045971;28;20476;-76
2022/06/19 09:21:06;;;;;;;1.47;0.80;;;24.70;72.40;;;;;;5025525;28;20577;-76
2022/06/19 09:24:16;;;;;;;1.50;0.90;;;24.70;71.80;;;;;;5045287;28;20568;-76
2022/06/19 09:26:50;;;;;;;1.47;0.80;;;24.80;72.20;;;;;;5003644;28;20495;-76
2022/06/19 09:29:21;;;;;;;1.40;0.80;;;25.00;72.30;;;;;;5005981;28;20471;-76
2022/06/19 09:31:54;;;;;;;1.47;0.80;;;25.20;71.80;;;;;;5020269;28;20484;-76
2022/06/19 09:34:27;;;;;;;1.50;0.83;;;25.20;71.10;;;;;;5052209;28;20469;-75
2022/06/19 09:36:57;;;;;;;1.50;1.00;;;25.10;71.30;;;;;;5036318;28;20681;-77
2022/06/19 09:39:33;;;;;;;1.50;0.80;;;25.10;71.70;;;;;;5039642;28;20516;-75
2022/06/19 09:42:09;;;;;;;1.40;0.80;;;25.20;71.00;;;;;;5037897;28;21051;-76
2022/06/19 09:44:44;;;;;;;1.47;0.90;;;25.40;71.10;;;;;;5043143;28;20462;-76
2022/06/19 09:47:15;;;;;;;1.43;0.80;;;25.40;70.30;;;;;;5042742;28;20585;-76
2022/06/19 09:49:47;;;;;;;1.50;0.80;;;25.60;70.90;;;;;;5041394;28;20673;-76
2022/06/19 09:52:19;;;;;;;1.40;0.80;;;25.80;70.20;;;;;;5030010;28;20561;-76
2022/06/19 09:54:53;;;;;;;1.40;0.80;;;25.90;70.40;;;;;;5042576;28;20558;-75
2022/06/19 09:57:26;;;;;;;1.47;0.80;;;25.90;69.80;;;;;;5041184;28;20493;-75
2022/06/19 10:00:01;;;;;;;1.47;0.80;;;26.20;71.00;;;;;;5042670;28;20490;-74
2022/06/19 10:02:36;;;;;;;1.50;0.80;;;26.50;70.50;;;;;;5037143;28;20976;-74
2022/06/19 10:05:10;;;;;;;1.40;0.80;;;26.80;68.40;;;;;;5036125;28;20514;-74
2022/06/19 10:07:42;;;;;;;1.40;0.80;;;26.80;67.80;;;;;;5034997;28;20500;-75
2022/06/19 10:10:19;;;;;;;1.47;0.90;;;26.70;67.80;;;;;;5036849;28;20478;-75
2022/06/19 10:12:50;;;;;;;1.50;0.83;;;26.50;68.50;;;;;;5039859;28;20540;-75
2022/06/19 10:15:20;;;;;;;1.40;0.90;;;26.30;68.70;;;;;;5043302;28;20461;-74
2022/06/19 10:17:53;;;;;;;1.43;0.80;;;26.00;69.30;;;;;;5036987;28;20458;-73
2022/06/19 10:20:30;;;;;;;1.47;0.87;;;25.30;72.60;;;;;;5041223;28;20568;-74
2022/06/19 10:23:05;;;;;;;1.47;0.90;;;24.30;77.20;;;;;;5032868;28;20489;-75
2022/06/19 10:25:44;;;;;;;1.50;1.00;;;23.70;78.00;;;;;;5036945;28;20467;-75
2022/06/19 10:28:25;;;;;;;1.50;0.90;;;23.00;78.70;;;;;;5029181;28;21007;-75
2022/06/19 10:30:59;;;;;;;1.50;0.87;;;22.80;79.50;;;;;;5023639;28;20553;-75
2022/06/19 10:33:39;;;;;;;1.50;0.90;;;22.70;79.80;;;;;;5060114;28;20462;-75
2022/06/19 10:36:23;;;;;;;1.50;0.90;;;22.80;80.80;;;;;;5029449;28;20479;-75
2022/06/19 10:39:13;;;;;;;1.40;0.90;;;23.20;79.90;;;;;;5047298;28;20463;-76
2022/06/19 10:42:05;;;;;;;1.47;0.87;;;23.80;79.20;;;;;;5023420;28;20475;-76
2022/06/19 10:44:44;;;;;;;1.47;0.90;;;24.50;77.20;;;;;;5038496;28;20477;-76
2022/06/19 10:47:21;;;;;;;1.43;0.80;;;25.20;75.50;;;;;;5036923;28;20477;-76
2022/06/19 10:49:59;;;;;;;1.47;0.80;;;25.90;74.90;;;;;;5037112;28;20489;-76
2022/06/19 10:52:38;;;;;;;1.47;0.90;;;26.30;74.10;;;;;;5031336;28;20478;-74
2022/06/19 10:55:16;;;;;;;1.50;0.90;;;26.80;72.10;;;;;;5036603;28;20553;-74
2022/06/19 10:57:54;;;;;;;1.47;0.90;;;27.20;72.10;;;;;;5038875;28;20545;-75
2022/06/19 11:00:21;;;;;;;1.47;0.90;;;27.60;70.00;;;;;;5037525;28;20484;-75
2022/06/19 11:05:45;;;;;;;1.43;0.80;;;27.70;69.20;;;;;;5041937;28;20481;-75
2022/06/19 11:08:15;;;;;;;1.47;0.80;;;28.00;69.30;;;;;;5037855;28;20983;-76
2022/06/19 11:10:45;;;;;;;1.40;0.80;;;28.20;67.80;;;;;;5035486;28;20458;-76
2022/06/19 11:13:14;;;;;;;1.50;0.80;;;28.60;67.40;;;;;;5026779;28;20495;-76
2022/06/19 11:15:43;;;;;;;2.10;1.00;;;28.80;67.80;;;;;;5040411;28;20478;-77
2022/06/19 11:18:15;;;;;;;1.47;0.80;;;28.70;66.90;;;;;;5026706;28;20487;-76
2022/06/19 11:20:54;;;;;;;1.47;0.80;;;28.60;66.50;;;;;;5036830;28;20494;-76
2022/06/19 11:23:31;;;;;;;1.43;0.80;;;28.60;67.80;;;;;;5027167;28;20931;-76
2022/06/19 11:26:07;;;;;;;1.50;0.80;;;28.40;66.30;;;;;;5032994;22;20494;-74
2022/06/19 11:28:55;;;;;;;1.47;0.80;;;28.30;68.40;;;;;;5031257;28;20532;-76
2022/06/19 11:31:25;;;;;;;1.43;0.80;;;28.50;67.30;;;;;;5023757;28;20473;-76
2022/06/19 11:33:55;;;;;;;1.47;0.80;;;28.50;67.60;;;;;;5039311;28;20896;-76
2022/06/19 11:36:34;;;;;;;1.47;0.80;;;28.50;67.90;;;;;;5021381;28;20474;-77
2022/06/19 11:39:34;;;;;;;1.50;0.80;;;28.50;66.60;;;;;;5034890;28;20463;-76
2022/06/19 11:42:36;;;;;;;1.47;0.80;;;28.50;67.00;;;;;;5017993;28;20481;-76
2022/06/19 11:45:07;;;;;;;1.47;0.80;;;28.40;67.50;;;;;;5023207;28;20469;-76
2022/06/19 11:47:39;;;;;;;1.43;0.80;;;28.20;67.30;;;;;;5028676;28;20580;-76
2022/06/19 11:50:16;;;;;;;1.43;0.80;;;28.00;68.30;;;;;;5024872;28;20466;-76
2022/06/19 11:52:47;;;;;;;1.43;0.90;;;27.80;68.30;;;;;;5022908;28;20478;-76
2022/06/19 11:55:22;;;;;;;1.43;0.80;;;27.80;68.50;;;;;;5028394;28;20494;-76
2022/06/19 11:57:51;;;;;;;1.47;0.80;;;28.00;68.60;;;;;;5024973;28;20487;-75
2022/06/19 12:00:26;;;;;;;1.60;1.40;;;28.30;68.10;;;;;;5026387;28;20927;-75
2022/06/19 12:02:59;;;;;;;1.40;0.80;;;28.60;67.10;;;;;;5031448;28;20477;-75
2022/06/19 12:05:30;;;;;;;1.40;0.80;;;28.50;67.10;;;;;;5025994;28;20488;-74
2022/06/19 12:08:05;;;;;;;1.50;0.80;;;28.60;67.10;;;;;;5028704;28;20463;-75
2022/06/19 12:10:36;;;;;;;1.43;0.80;;;28.30;67.00;;;;;;5024926;28;20476;-75
2022/06/19 12:13:19;;;;;;;1.40;0.80;;;28.20;67.90;;;;;;5026858;28;20465;-74
2022/06/19 12:15:55;;;;;;;1.43;0.80;;;28.40;67.90;;;;;;5017845;28;20541;-75
2022/06/19 12:18:22;;;;;;;1.43;0.80;;;28.40;67.50;;;;;;5041992;28;20465;-74
2022/06/19 12:20:58;;;;;;;1.47;0.80;;;28.70;66.60;;;;;;5014721;28;20487;-74
2022/06/19 12:23:31;;;;;;;1.43;0.80;;;29.00;66.80;;;;;;5040536;28;20451;-76
2022/06/19 12:26:02;;;;;;;1.40;0.80;;;29.40;65.10;;;;;;5014353;28;20576;-74
2022/06/19 12:28:34;;;;;;;1.40;0.80;;;29.50;65.30;;;;;;5031184;28;20466;-75
2022/06/19 12:31:05;;;;;;;1.43;0.80;;;29.50;66.30;;;;;;5017453;28;20462;-75
2022/06/19 12:33:36;;;;;;;1.47;0.80;;;29.40;65.40;;;;;;5036985;28;20474;-74
2022/06/19 12:36:03;;;;;;;1.47;0.80;;;29.50;64.40;;;;;;5024283;28;20579;-75
2022/06/19 12:38:32;;;;;;;1.43;0.80;;;29.70;65.40;;;;;;5021801;28;20804;-75
2022/06/19 12:41:21;;;;;;;1.47;0.80;;;29.80;65.60;;;;;;5014790;28;20483;-75
2022/06/19 12:44:01;;;;;;;1.43;0.80;;;30.00;65.40;;;;;;5028176;28;20990;-74
2022/06/19 12:46:36;;;;;;;1.43;0.80;;;30.00;64.30;;;;;;5013660;28;20484;-76
2022/06/19 12:49:15;;;;;;;1.43;0.80;;;30.00;63.80;;;;;;5030516;28;20466;-74
2022/06/19 12:51:50;;;;;;;1.47;0.80;;;30.20;64.10;;;;;;5016813;28;20566;-74
2022/06/19 12:54:40;;;;;;;1.47;0.80;;;30.30;63.70;;;;;;5025840;28;21014;-75
2022/06/19 12:57:19;;;;;;;1.43;0.80;;;30.20;63.80;;;;;;5015653;28;20482;-76
2022/06/19 13:00:01;;;;;;;1.40;0.80;;;30.00;63.90;;;;;;5025957;28;20527;-75
2022/06/19 13:02:44;;;;;;;1.47;0.80;;;29.70;64.00;;;;;;5021170;28;20200;-74
2022/06/19 13:05:20;;;;;;;1.40;0.80;;;29.60;64.20;;;;;;5023337;28;20846;-75
2022/06/19 13:08:00;;;;;;;1.40;0.80;;;29.50;64.30;;;;;;5014414;28;20489;-76
2022/06/19 13:10:48;;;;;;;1.43;0.80;;;29.30;64.20;;;;;;5018827;28;20473;-76
2022/06/19 13:13:48;;;;;;;1.43;0.80;;;28.80;64.70;;;;;;5011066;28;20471;-75
2022/06/19 13:16:21;;;;;;;1.47;0.80;;;28.80;65.40;;;;;;5016186;28;20485;-74
2022/06/19 13:18:57;;;;;;;1.43;0.80;;;28.70;65.40;;;;;;5030676;28;21070;-75